createdAt,value
2023-02-06T00:01:34.294Z,5.80
2023-02-06T00:04:01.340Z,5.70
2023-02-06T00:06:28.475Z,5.70
2023-02-06T00:08:55.654Z,5.60
2023-02-06T00:11:23.081Z,5.70
2023-02-06T00:13:50.069Z,5.60
2023-02-06T00:16:22.754Z,5.70
2023-02-06T00:18:50.808Z,5.60
2023-02-06T00:21:20.327Z,5.60
2023-02-06T00:23:47.518Z,5.70
2023-02-06T00:26:14.699Z,5.60
2023-02-06T00:28:41.502Z,5.60
2023-02-06T00:31:09.298Z,5.50
2023-02-06T00:33:36.693Z,5.50
2023-02-06T00:36:04.267Z,5.40
2023-02-06T00:38:31.979Z,5.40
2023-02-06T00:40:58.864Z,5.40
2023-02-06T00:43:25.756Z,5.40
2023-02-06T00:45:53.847Z,5.30
2023-02-06T00:48:20.859Z,5.30
2023-02-06T00:50:52.107Z,5.30
2023-02-06T00:53:19.347Z,5.30
2023-02-06T00:55:46.166Z,5.10
2023-02-06T00:58:13.158Z,5.10
2023-02-06T01:00:39.928Z,5.10
2023-02-06T01:03:06.780Z,5.00
2023-02-06T01:05:34.107Z,5.00
2023-02-06T01:08:03.408Z,5.00
2023-02-06T01:10:31.645Z,4.90
2023-02-06T01:12:58.705Z,4.90
2023-02-06T01:15:25.966Z,4.80
2023-02-06T01:17:53.144Z,4.80
2023-02-06T01:20:21.624Z,4.70
2023-02-06T01:22:48.767Z,4.60
2023-02-06T01:25:15.734Z,4.50
2023-02-06T01:27:42.748Z,4.50
2023-02-06T01:30:10.360Z,4.40
2023-02-06T01:32:41.571Z,4.40
2023-02-06T01:35:10.219Z,4.40
2023-02-06T01:37:37.683Z,4.30
2023-02-06T01:40:11.940Z,4.20
2023-02-06T01:42:39.380Z,4.20
2023-02-06T01:45:21.601Z,4.10
2023-02-06T01:47:52.416Z,4.10
2023-02-06T01:50:19.389Z,4.00
2023-02-06T01:52:47.415Z,4.10
2023-02-06T01:55:14.705Z,4.00
2023-02-06T01:57:42.018Z,3.90
2023-02-06T02:00:10.876Z,3.80
2023-02-06T02:02:43.046Z,3.70
2023-02-06T02:05:11.817Z,3.50
2023-02-06T02:07:46.116Z,3.60
2023-02-06T02:10:13.006Z,3.40
2023-02-06T02:12:39.898Z,3.30
2023-02-06T02:15:07.062Z,3.30
2023-02-06T02:17:56.377Z,3.20
2023-02-06T02:20:52.444Z,3.20
2023-02-06T02:23:38.042Z,3.40
2023-02-06T02:26:43.336Z,3.40
2023-02-06T02:29:31.360Z,3.40
2023-02-06T02:32:15.397Z,3.30
2023-02-06T02:34:45.015Z,3.30
2023-02-06T02:37:17.867Z,3.10
2023-02-06T02:40:10.619Z,3.10
2023-02-06T02:43:01.270Z,3.00
2023-02-06T02:45:46.714Z,2.90
2023-02-06T02:48:20.742Z,2.80
2023-02-06T02:50:47.852Z,2.80
2023-02-06T02:53:14.931Z,2.70
2023-02-06T02:55:42.198Z,2.70
2023-02-06T02:58:16.724Z,2.60
2023-02-06T03:00:50.109Z,2.50
2023-02-06T03:03:22.828Z,2.40
2023-02-06T03:06:08.237Z,2.30
2023-02-06T03:08:46.506Z,2.40
2023-02-06T03:11:16.511Z,2.30
2023-02-06T03:14:09.058Z,2.30
2023-02-06T03:16:44.710Z,2.30
2023-02-06T03:19:19.094Z,2.20
2023-02-06T03:21:47.244Z,2.20
2023-02-06T03:24:26.461Z,2.10
2023-02-06T03:26:59.391Z,2.10
2023-02-06T03:29:29.181Z,2.20
2023-02-06T03:32:00.676Z,2.20
2023-02-06T03:34:51.037Z,2.10
2023-02-06T03:37:18.012Z,2.10
2023-02-06T03:39:45.003Z,2.30
2023-02-06T03:42:13.494Z,2.30
2023-02-06T03:44:45.034Z,2.30
2023-02-06T03:47:14.406Z,2.10
2023-02-06T03:49:43.648Z,2.10
2023-02-06T03:52:18.952Z,2.10
2023-02-06T03:54:51.724Z,2.00
2023-02-06T03:57:19.443Z,1.90
2023-02-06T03:59:46.999Z,2.00
2023-02-06T04:02:15.947Z,2.00
2023-02-06T04:04:44.939Z,2.10
2023-02-06T04:07:30.350Z,1.90
2023-02-06T04:09:57.556Z,1.90
2023-02-06T04:12:24.724Z,1.80
2023-02-06T04:14:52.373Z,1.90
2023-02-06T04:17:38.425Z,1.90
2023-02-06T04:20:06.327Z,1.90
2023-02-06T04:22:33.601Z,1.80
2023-02-06T04:25:00.424Z,1.80
2023-02-06T04:27:27.337Z,1.70
2023-02-06T04:29:54.124Z,1.70
2023-02-06T04:32:20.985Z,1.70
2023-02-06T04:34:47.753Z,1.70
2023-02-06T04:37:14.596Z,1.70
2023-02-06T04:39:41.455Z,1.60
2023-02-06T04:42:08.645Z,1.60
2023-02-06T04:44:38.416Z,1.60
2023-02-06T04:47:06.114Z,1.50
2023-02-06T04:49:33.285Z,1.50
2023-02-06T04:52:00.121Z,1.50
2023-02-06T04:54:27.020Z,1.40
2023-02-06T04:56:53.930Z,1.40
2023-02-06T04:59:20.729Z,1.40
2023-02-06T05:01:48.321Z,1.30
2023-02-06T05:04:15.234Z,1.30
2023-02-06T05:06:42.009Z,1.40
2023-02-06T05:09:09.878Z,1.40
2023-02-06T05:11:36.831Z,1.30
2023-02-06T05:14:03.869Z,1.20
2023-02-06T05:16:30.854Z,1.10
2023-02-06T05:18:58.077Z,1.10
2023-02-06T05:21:29.100Z,1.10
2023-02-06T05:23:55.944Z,1.20
2023-02-06T05:26:23.023Z,1.40
2023-02-06T05:28:49.899Z,1.40
2023-02-06T05:31:20.052Z,1.30
2023-02-06T05:33:51.108Z,1.30
2023-02-06T05:36:19.736Z,1.30
2023-02-06T05:38:47.207Z,1.20
2023-02-06T05:41:14.343Z,1.20
2023-02-06T05:43:41.596Z,1.10
2023-02-06T05:46:08.825Z,1.00
2023-02-06T05:48:35.857Z,1.00
2023-02-06T05:51:02.743Z,0.90
2023-02-06T05:53:29.673Z,0.90
2023-02-06T05:55:57.070Z,0.90
2023-02-06T05:58:24.050Z,1.00
2023-02-06T06:00:50.872Z,1.00
2023-02-06T06:03:17.795Z,0.90
2023-02-06T06:05:45.419Z,0.80
2023-02-06T06:08:12.231Z,0.80
2023-02-06T06:10:39.017Z,0.90
2023-02-06T06:13:06.398Z,0.90
2023-02-06T06:15:33.223Z,0.90
2023-02-06T06:18:00.201Z,0.70
2023-02-06T06:20:27.099Z,0.70
2023-02-06T06:22:53.891Z,0.80
2023-02-06T06:25:20.813Z,0.70
2023-02-06T06:27:47.619Z,0.80
2023-02-06T06:30:15.043Z,0.70
2023-02-06T06:32:41.823Z,0.70
2023-02-06T06:35:09.077Z,0.70
2023-02-06T06:37:35.966Z,0.70
2023-02-06T06:40:02.760Z,0.80
2023-02-06T06:42:29.597Z,0.80
2023-02-06T06:44:56.371Z,0.90
2023-02-06T06:47:23.135Z,0.90
2023-02-06T06:49:49.921Z,0.90
2023-02-06T06:52:25.099Z,0.90
2023-02-06T06:54:53.246Z,1.00
2023-02-06T06:57:21.183Z,1.20
2023-02-06T06:59:48.379Z,1.00
2023-02-06T07:02:15.472Z,1.00
2023-02-06T07:04:42.590Z,1.20
2023-02-06T07:07:09.656Z,1.20
2023-02-06T07:09:36.394Z,1.30
2023-02-06T07:12:03.515Z,1.30
2023-02-06T07:14:30.391Z,1.10
2023-02-06T07:16:57.202Z,1.00
2023-02-06T07:19:24.014Z,1.00
2023-02-06T07:21:50.840Z,1.20
2023-02-06T07:24:17.681Z,1.10
2023-02-06T07:26:45.201Z,1.20
2023-02-06T07:29:12.033Z,1.10
2023-02-06T07:31:38.870Z,1.00
2023-02-06T07:34:05.692Z,1.10
2023-02-06T07:36:32.571Z,1.10
2023-02-06T07:38:59.377Z,1.10
2023-02-06T07:41:26.147Z,1.20
2023-02-06T07:43:55.036Z,1.20
2023-02-06T07:46:22.101Z,1.30
2023-02-06T07:48:49.000Z,1.30
2023-02-06T07:51:15.878Z,1.20
2023-02-06T07:56:33.666Z,1.40
2023-02-06T07:59:02.699Z,1.50
2023-02-06T08:01:30.157Z,1.40
2023-02-06T08:03:57.120Z,1.50
2023-02-06T08:06:26.246Z,1.40
2023-02-06T08:08:56.464Z,1.40
2023-02-06T08:11:30.405Z,1.50
2023-02-06T08:14:02.274Z,1.60
2023-02-06T08:16:29.115Z,1.70
2023-02-06T08:18:56.063Z,1.70
2023-02-06T08:21:25.635Z,1.70
2023-02-06T08:23:57.936Z,1.60
2023-02-06T08:26:26.100Z,1.90
2023-02-06T08:28:54.070Z,1.80
2023-02-06T08:31:23.230Z,1.90
2023-02-06T08:33:50.683Z,2.00
2023-02-06T08:36:20.033Z,2.00
2023-02-06T08:38:47.152Z,2.00
2023-02-06T08:41:22.155Z,2.00
2023-02-06T08:43:50.677Z,2.10
2023-02-06T08:46:19.072Z,2.00
2023-02-06T08:48:46.771Z,2.10
2023-02-06T08:51:13.918Z,2.20
2023-02-06T08:53:40.804Z,2.10
2023-02-06T08:56:10.140Z,2.10
2023-02-06T08:58:38.033Z,2.10
2023-02-06T09:01:19.106Z,2.20
2023-02-06T09:03:47.602Z,2.40
2023-02-06T09:06:16.042Z,2.40
2023-02-06T09:08:43.256Z,2.60
2023-02-06T09:11:15.775Z,2.80
2023-02-06T09:13:43.936Z,2.90
2023-02-06T09:16:12.118Z,3.10
2023-02-06T09:18:40.544Z,3.20
2023-02-06T09:21:11.727Z,3.10
2023-02-06T09:23:40.640Z,3.40
2023-02-06T09:26:07.411Z,3.20
2023-02-06T09:28:34.379Z,3.50
2023-02-06T09:31:01.497Z,3.60
2023-02-06T09:33:28.388Z,3.70
2023-02-06T09:36:11.636Z,3.40
2023-02-06T09:38:44.456Z,3.60
2023-02-06T09:41:46.327Z,3.50
2023-02-06T09:44:24.660Z,3.50
2023-02-06T09:47:24.271Z,3.70
2023-02-06T09:50:43.002Z,3.40
2023-02-06T09:53:15.882Z,3.50
2023-02-06T09:55:47.594Z,3.70
2023-02-06T09:58:28.952Z,3.90
2023-02-06T10:01:07.626Z,3.80
2023-02-06T10:04:10.145Z,3.90
2023-02-06T10:06:41.372Z,3.70
2023-02-06T10:09:10.554Z,3.70
2023-02-06T10:11:52.897Z,3.50
2023-02-06T10:14:43.024Z,3.40
2023-02-06T10:17:15.749Z,3.80
2023-02-06T10:20:15.892Z,3.80
2023-02-06T10:23:10.354Z,4.10
2023-02-06T10:25:43.707Z,4.30
2023-02-06T10:28:25.892Z,4.40
2023-02-06T10:30:58.858Z,4.40
2023-02-06T10:33:45.384Z,4.50
2023-02-06T10:36:30.114Z,4.40
2023-02-06T10:39:22.760Z,4.30
2023-02-06T10:42:27.176Z,4.20
2023-02-06T10:45:20.139Z,4.10
2023-02-06T10:47:47.228Z,4.40
2023-02-06T10:50:45.196Z,4.70
2023-02-06T10:53:27.776Z,5.10
2023-02-06T10:56:03.138Z,5.20
2023-02-06T10:58:44.611Z,4.70
2023-02-06T11:01:25.646Z,4.50
2023-02-06T11:04:23.965Z,4.50
2023-02-06T11:06:58.134Z,4.60
2023-02-06T11:09:25.139Z,4.60
2023-02-06T11:11:54.712Z,4.60
2023-02-06T11:14:32.025Z,4.80
2023-02-06T11:17:02.515Z,4.40
2023-02-06T11:19:31.700Z,4.90
2023-02-06T11:22:04.641Z,5.20
2023-02-06T11:24:31.563Z,4.90
2023-02-06T11:27:02.041Z,4.80
2023-02-06T11:29:32.457Z,4.90
2023-02-06T11:32:01.881Z,5.00
2023-02-06T11:34:35.724Z,5.30
2023-02-06T11:37:05.517Z,5.40
2023-02-06T11:39:37.871Z,5.60
2023-02-06T11:42:13.837Z,5.70
2023-02-06T11:44:43.264Z,5.70
2023-02-06T11:47:32.952Z,5.10
2023-02-06T11:50:30.550Z,5.00
2023-02-06T11:53:18.118Z,5.60
2023-02-06T11:55:57.359Z,5.30
2023-02-06T11:58:27.253Z,5.00
2023-02-06T12:00:56.794Z,5.30
2023-02-06T12:03:50.333Z,5.70
2023-02-06T12:06:30.705Z,6.40
2023-02-06T12:09:00.211Z,5.70
2023-02-06T12:11:32.829Z,5.70
2023-02-06T12:14:36.138Z,5.50
2023-02-06T12:17:08.526Z,5.60
2023-02-06T12:19:48.913Z,5.90
2023-02-06T12:22:22.846Z,6.00
2023-02-06T12:24:55.509Z,5.90
2023-02-06T12:27:31.924Z,5.60
2023-02-06T12:30:30.490Z,5.70
2023-02-06T12:33:16.295Z,5.70
2023-02-06T12:35:59.644Z,5.80
2023-02-06T12:38:38.285Z,6.00
2023-02-06T12:41:40.507Z,6.10
2023-02-06T12:44:10.314Z,5.90
2023-02-06T12:46:38.023Z,6.30
2023-02-06T12:49:21.970Z,6.20
2023-02-06T12:52:21.006Z,6.00
2023-02-06T12:54:58.551Z,6.00
2023-02-06T12:57:29.561Z,5.90
2023-02-06T13:00:44.989Z,5.80
2023-02-06T13:03:23.679Z,5.80
2023-02-06T13:05:56.929Z,5.50
2023-02-06T13:08:45.118Z,5.80
2023-02-06T13:11:24.119Z,6.00
2023-02-06T13:14:00.722Z,6.10
2023-02-06T13:16:38.967Z,6.30
2023-02-06T13:19:06.070Z,6.20
2023-02-06T13:21:35.196Z,6.30
2023-02-06T13:24:01.949Z,6.20
2023-02-06T13:26:51.651Z,6.10
2023-02-06T13:29:38.633Z,6.10
2023-02-06T13:32:15.139Z,6.00
2023-02-06T13:34:45.045Z,6.20
2023-02-06T13:37:39.616Z,6.10
2023-02-06T13:40:25.627Z,6.60
2023-02-06T13:43:35.855Z,6.90
2023-02-06T13:46:09.400Z,6.50
2023-02-06T13:48:51.548Z,6.80
2023-02-06T13:51:30.549Z,6.00
2023-02-06T13:54:22.122Z,5.90
2023-02-06T13:57:32.598Z,6.00
2023-02-06T14:00:10.408Z,6.20
2023-02-06T14:02:44.317Z,6.20
2023-02-06T14:05:15.986Z,6.20
2023-02-06T14:08:01.303Z,6.20
2023-02-06T14:10:30.884Z,6.10
2023-02-06T14:13:39.350Z,6.10
2023-02-06T14:16:31.948Z,6.10
2023-02-06T14:19:17.663Z,6.10
2023-02-06T14:22:00.700Z,6.10
2023-02-06T14:24:45.465Z,6.00
2023-02-06T14:27:24.384Z,6.10
2023-02-06T14:29:54.406Z,6.10
2023-02-06T14:32:37.096Z,6.10
2023-02-06T14:35:39.483Z,6.20
2023-02-06T14:38:27.350Z,6.30
2023-02-06T14:40:57.007Z,6.30
2023-02-06T14:43:29.174Z,6.40
2023-02-06T14:46:07.594Z,6.40
2023-02-06T14:48:53.681Z,6.50
2023-02-06T14:51:31.446Z,6.80
2023-02-06T14:54:04.318Z,6.70
2023-02-06T14:56:32.369Z,6.90
2023-02-06T14:59:18.013Z,6.80
2023-02-06T15:01:48.057Z,6.60
2023-02-06T15:04:18.944Z,6.30
2023-02-06T15:07:00.727Z,6.30
2023-02-06T15:09:32.721Z,6.20
2023-02-06T15:12:21.266Z,6.20
2023-02-06T15:14:57.709Z,6.20
2023-02-06T15:17:26.874Z,6.20
2023-02-06T15:19:56.577Z,6.30
2023-02-06T15:22:28.225Z,6.20
2023-02-06T15:25:19.421Z,6.10
2023-02-06T15:27:46.324Z,6.00
2023-02-06T15:30:22.090Z,5.90
2023-02-06T15:32:52.138Z,5.90
2023-02-06T15:35:25.625Z,5.70
2023-02-06T15:37:54.025Z,5.80
2023-02-06T15:40:35.996Z,5.70
2023-02-06T15:43:03.655Z,5.70
2023-02-06T15:45:35.772Z,5.70
2023-02-06T15:48:16.032Z,5.80
2023-02-06T15:50:59.691Z,5.80
2023-02-06T15:53:38.654Z,5.80
2023-02-06T15:56:20.801Z,5.80
2023-02-06T15:58:49.530Z,5.80
2023-02-06T16:01:19.946Z,5.80
2023-02-06T16:03:53.255Z,5.90
2023-02-06T16:06:20.144Z,5.80
2023-02-06T16:08:53.858Z,5.80
2023-02-06T16:11:39.996Z,5.80
2023-02-06T16:14:07.108Z,5.70
2023-02-06T16:16:34.134Z,5.60
2023-02-06T16:19:01.036Z,5.50
2023-02-06T16:21:32.522Z,5.50
2023-02-06T16:24:06.723Z,5.40
2023-02-06T16:26:52.401Z,5.40
2023-02-06T16:29:32.487Z,5.30
2023-02-06T16:32:02.151Z,5.30
2023-02-06T16:34:38.624Z,5.40
2023-02-06T16:37:12.108Z,5.40
2023-02-06T16:39:42.261Z,5.40
2023-02-06T16:42:27.318Z,5.40
2023-02-06T16:45:01.503Z,5.50
2023-02-06T16:47:28.410Z,5.50
2023-02-06T16:49:55.261Z,5.50
2023-02-06T16:52:26.014Z,5.40
2023-02-06T16:54:55.910Z,5.50
2023-02-06T16:57:35.300Z,5.50
2023-02-06T17:00:06.129Z,5.50
2023-02-06T17:02:33.100Z,5.50
2023-02-06T17:04:59.937Z,5.50
2023-02-06T17:07:30.858Z,5.40
2023-02-06T17:09:59.011Z,5.40
2023-02-06T17:12:25.839Z,5.40
2023-02-06T17:14:52.604Z,5.30
2023-02-06T17:17:22.111Z,5.30
2023-02-06T17:19:50.291Z,5.20
2023-02-06T17:22:17.287Z,5.10
2023-02-06T17:24:44.379Z,5.10
2023-02-06T17:27:20.464Z,5.10
2023-02-06T17:29:47.919Z,5.00
2023-02-06T17:32:16.241Z,4.90
2023-02-06T17:34:43.144Z,4.90
2023-02-06T17:37:20.473Z,4.90
2023-02-06T17:39:49.517Z,4.80
2023-02-06T17:42:16.474Z,4.80
2023-02-06T17:44:43.928Z,4.80
2023-02-06T17:47:13.116Z,4.80
2023-02-06T17:49:39.993Z,4.70
2023-02-06T17:52:06.915Z,4.60
2023-02-06T17:54:34.034Z,4.60
2023-02-06T17:57:00.819Z,4.60
2023-02-06T17:59:28.735Z,4.50
2023-02-06T18:01:56.080Z,4.50
2023-02-06T18:04:24.616Z,4.50
2023-02-06T18:06:51.397Z,4.50
2023-02-06T18:09:18.304Z,4.40
2023-02-06T18:11:45.096Z,4.40
2023-02-06T18:14:12.101Z,4.40
2023-02-06T18:16:42.721Z,4.40
2023-02-06T18:19:10.450Z,4.30
2023-02-06T18:21:37.281Z,4.20
2023-02-06T18:24:05.069Z,4.20
2023-02-06T18:26:32.029Z,4.10
2023-02-06T18:28:58.826Z,4.10
2023-02-06T18:31:36.270Z,4.00
2023-02-06T18:34:07.737Z,4.10
2023-02-06T18:36:36.488Z,4.10
2023-02-06T18:39:04.979Z,4.00
2023-02-06T18:41:50.370Z,4.00
2023-02-06T18:44:17.275Z,3.90
2023-02-06T18:46:44.344Z,3.80
2023-02-06T18:49:11.252Z,3.80
2023-02-06T18:51:38.081Z,3.70
2023-02-06T18:54:05.144Z,3.70
2023-02-06T18:56:32.531Z,3.70
2023-02-06T18:58:59.520Z,3.70
2023-02-06T19:01:27.128Z,3.60
2023-02-06T19:03:54.182Z,3.50
2023-02-06T19:06:31.797Z,3.40
2023-02-06T19:08:59.583Z,3.50
2023-02-06T19:11:27.021Z,3.40
2023-02-06T19:13:54.468Z,3.30
2023-02-06T19:16:21.872Z,3.30
2023-02-06T19:18:49.667Z,3.40
2023-02-06T19:21:19.926Z,3.30
2023-02-06T19:23:52.586Z,3.20
2023-02-06T19:26:19.396Z,3.30
2023-02-06T19:28:46.238Z,3.30
2023-02-06T19:31:15.437Z,3.20
2023-02-06T19:33:42.384Z,3.10
2023-02-06T19:36:14.123Z,3.10
2023-02-06T19:38:42.162Z,3.00
2023-02-06T19:41:09.939Z,3.00
2023-02-06T19:43:37.432Z,2.90
2023-02-06T19:46:11.868Z,2.90
2023-02-06T19:48:41.167Z,2.90
2023-02-06T19:51:11.172Z,2.80
2023-02-06T19:53:45.090Z,2.80
2023-02-06T19:56:13.012Z,2.70
2023-02-06T19:58:39.955Z,2.70
2023-02-06T20:01:12.030Z,2.60
2023-02-06T20:03:39.399Z,2.50
2023-02-06T20:06:09.541Z,2.50
2023-02-06T20:08:37.303Z,2.50
2023-02-06T20:11:06.375Z,2.40
2023-02-06T20:13:34.246Z,2.40
2023-02-06T20:16:03.666Z,2.40
2023-02-06T20:18:35.337Z,2.30
2023-02-06T20:21:03.501Z,2.30
2023-02-06T20:23:30.548Z,2.20
2023-02-06T20:26:01.433Z,2.30
2023-02-06T20:28:28.725Z,2.20
2023-02-06T20:30:55.733Z,2.20
2023-02-06T20:33:22.702Z,2.20
2023-02-06T20:35:49.562Z,2.10
2023-02-06T20:38:18.311Z,2.00
2023-02-06T20:40:50.723Z,1.90
2023-02-06T20:43:17.661Z,1.90
2023-02-06T20:45:44.453Z,1.80
2023-02-06T20:48:11.258Z,1.80
2023-02-06T20:50:38.489Z,1.70
2023-02-06T20:53:05.432Z,1.70
2023-02-06T20:55:32.325Z,1.60
2023-02-06T20:57:59.173Z,1.60
2023-02-06T21:00:26.012Z,1.60
2023-02-06T21:02:53.348Z,1.50
2023-02-06T21:05:20.415Z,1.50
2023-02-06T21:07:47.260Z,1.40
2023-02-06T21:10:14.383Z,1.30
2023-02-06T21:12:41.215Z,1.30
2023-02-06T21:15:08.586Z,1.20
2023-02-06T21:17:35.497Z,1.20
2023-02-06T21:20:02.454Z,1.10
2023-02-06T21:22:29.324Z,1.10
2023-02-06T21:24:56.599Z,1.00
2023-02-06T21:27:23.452Z,1.00
2023-02-06T21:29:50.316Z,0.90
2023-02-06T21:32:17.289Z,0.90
2023-02-06T21:34:44.187Z,0.90
2023-02-06T21:37:11.300Z,0.80
2023-02-06T21:39:41.290Z,0.80
2023-02-06T21:42:09.881Z,0.70
2023-02-06T21:44:37.595Z,0.80
2023-02-06T21:47:05.105Z,0.70
2023-02-06T21:49:32.114Z,0.80
2023-02-06T21:51:59.783Z,0.80
2023-02-06T21:54:26.754Z,0.70
2023-02-06T21:56:54.001Z,0.70
2023-02-06T21:59:20.836Z,0.70
2023-02-06T22:01:47.822Z,0.70
2023-02-06T22:04:14.868Z,0.70
2023-02-06T22:06:41.798Z,0.70
2023-02-06T22:09:15.217Z,0.80
2023-02-06T22:11:42.548Z,0.70
2023-02-06T22:14:17.650Z,0.80
2023-02-06T22:16:46.827Z,0.90
2023-02-06T22:19:14.830Z,0.80
2023-02-06T22:21:42.299Z,0.70
2023-02-06T22:24:11.266Z,0.70
2023-02-06T22:26:39.439Z,0.70
2023-02-06T22:29:09.868Z,0.70
2023-02-06T22:31:38.633Z,0.70
2023-02-06T22:34:05.814Z,0.60
2023-02-06T22:36:33.766Z,0.60
2023-02-06T22:39:06.518Z,0.60
2023-02-06T22:41:33.763Z,0.60
2023-02-06T22:44:00.591Z,0.60
2023-02-06T22:46:31.426Z,0.70
2023-02-06T22:48:58.858Z,0.70
2023-02-06T22:51:26.231Z,0.70
2023-02-06T22:54:08.329Z,0.70
2023-02-06T22:56:37.804Z,0.60
2023-02-06T22:59:37.119Z,0.60
2023-02-06T23:02:04.035Z,0.50
2023-02-06T23:04:34.717Z,0.50
2023-02-06T23:07:01.948Z,0.50
2023-02-06T23:09:32.284Z,0.50
2023-02-06T23:11:59.781Z,0.50
2023-02-06T23:14:27.714Z,0.30
2023-02-06T23:16:54.647Z,0.30
2023-02-06T23:19:21.759Z,0.20
2023-02-06T23:21:51.180Z,0.20
2023-02-06T23:24:18.554Z,0.10
2023-02-06T23:26:47.448Z,0.10
2023-02-06T23:29:19.166Z,0.00
2023-02-06T23:31:46.915Z,-0.10
2023-02-06T23:34:14.561Z,-0.10
2023-02-06T23:36:42.521Z,-0.20
2023-02-06T23:39:09.359Z,-0.20
2023-02-06T23:41:36.196Z,-0.10
2023-02-06T23:44:05.875Z,-0.20
2023-02-06T23:46:36.316Z,-0.30
2023-02-06T23:49:03.536Z,-0.30
2023-02-06T23:51:30.530Z,-0.30
2023-02-06T23:53:57.297Z,-0.20
2023-02-06T23:56:27.500Z,-0.30
2023-02-06T23:58:56.436Z,-0.30
